createdAt,value
2022-12-23T00:04:06.531Z,17.30
2022-12-23T00:09:10.189Z,17.10
2022-12-23T00:14:31.951Z,18.00
2022-12-23T00:19:35.471Z,16.60
2022-12-23T00:24:39.067Z,13.00
2022-12-23T00:29:42.833Z,15.10
2022-12-23T00:34:46.456Z,15.40
2022-12-23T00:40:07.714Z,15.90
2022-12-23T00:45:16.538Z,15.40
2022-12-23T00:50:20.089Z,14.10
2022-12-23T00:55:23.743Z,16.40
2022-12-23T01:00:41.163Z,14.10
2022-12-23T01:05:44.726Z,13.70
2022-12-23T01:10:48.333Z,14.90
2022-12-23T01:15:51.870Z,13.70
2022-12-23T01:20:55.383Z,13.80
2022-12-23T01:25:59.440Z,13.30
2022-12-23T01:31:02.995Z,14.90
2022-12-23T01:36:06.571Z,13.70
2022-12-23T01:41:30.109Z,14.00
2022-12-23T01:46:33.755Z,13.50
2022-12-23T01:51:37.349Z,13.60
2022-12-23T01:56:41.903Z,14.90
2022-12-23T02:02:03.371Z,14.10
2022-12-23T02:07:24.894Z,11.60
2022-12-23T02:12:28.455Z,13.40
2022-12-23T02:17:32.009Z,10.50
2022-12-23T02:22:36.588Z,11.90
2022-12-23T02:27:40.774Z,12.10
2022-12-23T02:32:44.519Z,12.60
2022-12-23T02:37:48.213Z,11.60
2022-12-23T02:42:51.736Z,11.50
2022-12-23T02:47:55.349Z,12.10
2022-12-23T02:52:58.928Z,9.70
2022-12-23T02:58:02.548Z,11.50
2022-12-23T03:03:06.258Z,15.40
2022-12-23T03:13:13.758Z,13.20
2022-12-23T03:18:17.275Z,14.20
2022-12-23T03:23:20.786Z,12.20
2022-12-23T03:28:24.301Z,11.30
2022-12-23T03:33:27.845Z,12.40
2022-12-23T03:38:31.530Z,11.00
2022-12-23T03:43:35.131Z,13.70
2022-12-23T03:48:38.701Z,12.80
2022-12-23T03:53:42.321Z,13.30
2022-12-23T03:58:45.907Z,14.00
2022-12-23T04:03:49.656Z,13.80
2022-12-23T04:08:53.388Z,12.00
2022-12-23T04:13:57.180Z,16.00
2022-12-23T04:19:00.763Z,14.20
2022-12-23T04:24:04.344Z,16.20
2022-12-23T04:29:07.881Z,16.20
2022-12-23T04:34:11.478Z,15.10
2022-12-23T04:39:15.056Z,12.90
2022-12-23T04:44:18.600Z,13.40
2022-12-23T04:49:22.167Z,15.10
2022-12-23T04:54:25.907Z,13.00
2022-12-23T04:59:29.583Z,13.40
2022-12-23T05:04:33.170Z,13.90
2022-12-23T05:09:36.727Z,12.80
2022-12-23T05:14:40.439Z,13.00
2022-12-23T05:19:44.207Z,12.40
2022-12-23T05:24:47.791Z,13.00
2022-12-23T05:29:51.353Z,13.00
2022-12-23T05:34:54.897Z,11.80
2022-12-23T05:39:58.565Z,12.40
2022-12-23T05:45:02.441Z,9.00
2022-12-23T05:50:05.986Z,11.70
2022-12-23T05:55:09.540Z,13.40
2022-12-23T06:00:13.163Z,13.20
2022-12-23T06:05:16.679Z,14.70
2022-12-23T06:10:20.464Z,12.00
2022-12-23T06:15:24.057Z,9.90
2022-12-23T06:20:27.801Z,11.30
2022-12-23T06:25:31.384Z,10.30
2022-12-23T06:30:34.962Z,12.20
2022-12-23T06:35:38.855Z,8.80
2022-12-23T06:40:42.440Z,10.30
2022-12-23T06:45:46.159Z,9.60
2022-12-23T06:50:49.807Z,10.20
2022-12-23T06:55:53.387Z,13.80
2022-12-23T07:00:58.175Z,12.60
2022-12-23T07:06:01.805Z,10.90
2022-12-23T07:11:05.356Z,11.50
2022-12-23T07:16:09.057Z,10.40
2022-12-23T07:21:21.201Z,12.70
2022-12-23T07:26:30.391Z,14.50
2022-12-23T07:31:34.880Z,10.60
2022-12-23T07:36:40.903Z,11.60
2022-12-23T07:41:44.511Z,14.00
2022-12-23T07:46:48.248Z,12.10
2022-12-23T07:51:51.939Z,12.30
2022-12-23T07:56:56.180Z,16.10
2022-12-23T08:01:59.849Z,19.30
2022-12-23T08:07:03.546Z,14.80
2022-12-23T08:12:07.142Z,14.40
2022-12-23T08:17:11.045Z,18.80
2022-12-23T08:22:14.813Z,21.40
2022-12-23T08:27:18.451Z,18.40
2022-12-23T08:32:21.973Z,15.30
2022-12-23T08:37:25.491Z,20.10
2022-12-23T08:42:29.107Z,17.20
2022-12-23T08:47:32.718Z,19.80
2022-12-23T08:52:36.283Z,15.50
2022-12-23T08:57:40.010Z,15.50
2022-12-23T09:02:43.832Z,14.80
2022-12-23T09:12:51.336Z,15.00
2022-12-23T09:17:54.909Z,13.30
2022-12-23T09:22:58.532Z,14.10
2022-12-23T09:28:02.166Z,12.20
2022-12-23T09:33:05.843Z,11.80
2022-12-23T09:38:09.406Z,12.20
2022-12-23T09:43:12.938Z,14.20
2022-12-23T09:48:16.659Z,13.90
2022-12-23T09:53:20.483Z,11.80
2022-12-23T09:58:24.130Z,13.40
2022-12-23T10:03:27.837Z,10.70
2022-12-23T10:08:31.649Z,13.50
2022-12-23T10:13:35.996Z,11.00
2022-12-23T10:18:39.554Z,14.20
2022-12-23T10:23:43.155Z,10.60
2022-12-23T10:28:46.676Z,13.00
2022-12-23T10:33:50.242Z,11.10
2022-12-23T10:45:12.063Z,10.80
2022-12-23T10:50:15.687Z,11.40
2022-12-23T10:55:19.296Z,8.80
2022-12-23T11:00:22.949Z,8.90
2022-12-23T11:05:26.562Z,12.70
2022-12-23T11:10:32.830Z,8.80
2022-12-23T11:15:36.430Z,13.00
2022-12-23T11:20:40.539Z,11.40
2022-12-23T11:25:47.081Z,10.60
2022-12-23T11:30:55.942Z,11.20
2022-12-23T11:36:00.044Z,9.60
2022-12-23T11:41:03.697Z,13.70
2022-12-23T11:46:07.380Z,13.90
2022-12-23T11:51:11.102Z,14.70
2022-12-23T11:56:14.714Z,25.90
2022-12-23T12:01:18.394Z,21.60
2022-12-23T12:06:22.038Z,73.60
2022-12-23T12:11:25.679Z,50.90
2022-12-23T12:16:29.426Z,110.60
2022-12-23T12:21:33.040Z,61.50
2022-12-23T12:26:36.687Z,46.60
2022-12-23T12:31:40.331Z,42.90
2022-12-23T12:36:44.087Z,34.40
2022-12-23T12:41:47.831Z,42.50
2022-12-23T12:46:51.420Z,60.00
2022-12-23T12:51:55.006Z,70.10
2022-12-23T12:56:58.568Z,42.40
2022-12-23T13:02:02.309Z,37.00
2022-12-23T13:07:05.893Z,37.40
2022-12-23T13:12:09.486Z,37.20
2022-12-23T13:17:13.067Z,35.50
2022-12-23T13:22:16.762Z,30.90
2022-12-23T13:27:20.515Z,29.30
2022-12-23T13:32:24.200Z,33.60
2022-12-23T13:37:27.795Z,30.60
2022-12-23T13:42:31.364Z,27.60
2022-12-23T13:47:34.937Z,25.40
2022-12-23T13:52:38.629Z,26.80
2022-12-23T13:57:42.238Z,27.60
2022-12-23T14:02:45.996Z,24.50
2022-12-23T14:07:49.614Z,25.80
2022-12-23T14:12:53.160Z,20.40
2022-12-23T14:18:00.995Z,24.10
2022-12-23T14:23:07.802Z,23.20
2022-12-23T14:28:11.412Z,22.40
2022-12-23T14:33:15.033Z,19.90
2022-12-23T14:38:18.681Z,18.80
2022-12-23T14:43:22.447Z,18.10
2022-12-23T14:48:26.602Z,18.70
2022-12-23T14:53:30.248Z,17.40
2022-12-23T14:58:33.942Z,18.70
2022-12-23T15:03:37.510Z,16.20
2022-12-23T15:08:41.157Z,17.20
2022-12-23T15:13:44.734Z,17.80
2022-12-23T15:18:48.317Z,18.60
2022-12-23T15:23:52.047Z,14.80
2022-12-23T15:28:56.166Z,15.90
2022-12-23T15:34:03.520Z,15.70
2022-12-23T15:39:08.460Z,20.50
2022-12-23T15:44:12.003Z,18.10
2022-12-23T15:49:15.657Z,15.10
2022-12-23T15:54:19.368Z,18.90
2022-12-23T15:59:22.942Z,17.80
2022-12-23T16:04:26.659Z,16.40
2022-12-23T16:09:30.490Z,15.00
2022-12-23T16:14:34.915Z,14.10
2022-12-23T16:19:38.634Z,16.50
2022-12-23T16:24:42.298Z,23.10
2022-12-23T16:29:45.931Z,17.30
2022-12-23T16:39:53.078Z,15.80
2022-12-23T16:44:56.749Z,17.70
2022-12-23T16:55:04.034Z,18.20
2022-12-23T17:00:07.770Z,19.10
2022-12-23T17:05:11.327Z,40.90
2022-12-23T17:10:14.851Z,27.90
2022-12-23T17:15:18.530Z,38.30
2022-12-23T17:25:26.768Z,27.60
2022-12-23T17:30:31.023Z,24.10
2022-12-23T17:35:34.587Z,32.80
2022-12-23T17:40:38.762Z,24.30
2022-12-23T17:45:42.527Z,25.40
2022-12-23T17:50:46.185Z,24.00
2022-12-23T18:00:53.681Z,20.60
2022-12-23T18:11:05.978Z,27.90
2022-12-23T18:16:13.294Z,22.40
2022-12-23T18:21:17.030Z,23.20
2022-12-23T18:26:20.605Z,23.50
2022-12-23T18:31:24.419Z,23.80
2022-12-23T18:36:28.331Z,25.50
2022-12-23T18:41:32.098Z,20.30
2022-12-23T18:46:35.708Z,18.70
2022-12-23T18:56:42.976Z,16.00
2022-12-23T19:01:46.597Z,21.60
2022-12-23T19:11:53.726Z,20.20
2022-12-23T19:16:59.956Z,18.40
2022-12-23T19:22:03.585Z,20.10
2022-12-23T19:27:07.178Z,18.10
2022-12-23T19:32:10.698Z,19.00
2022-12-23T19:37:14.305Z,20.40
2022-12-23T19:42:17.954Z,15.70
2022-12-23T19:52:25.075Z,15.70
2022-12-23T19:57:28.615Z,20.50
2022-12-23T20:02:32.249Z,18.00
2022-12-23T20:07:35.935Z,17.00
2022-12-23T20:12:39.463Z,15.60
2022-12-23T20:17:42.985Z,15.10
2022-12-23T20:22:46.616Z,13.20
2022-12-23T20:27:50.249Z,14.30
2022-12-23T20:32:55.422Z,17.00
2022-12-23T20:37:59.283Z,17.90
2022-12-23T20:43:03.994Z,15.00
2022-12-23T20:48:07.519Z,15.70
2022-12-23T20:53:11.450Z,15.20
2022-12-23T20:58:32.698Z,14.20
2022-12-23T21:03:36.292Z,16.40
2022-12-23T21:13:43.930Z,12.90
2022-12-23T21:18:48.801Z,17.10
2022-12-23T21:23:52.378Z,18.10
2022-12-23T21:28:56.124Z,18.00
2022-12-23T21:39:03.932Z,20.00
2022-12-23T21:44:07.479Z,13.10
2022-12-23T21:49:11.299Z,15.70
2022-12-23T21:54:15.009Z,13.90
2022-12-23T21:59:18.522Z,13.50
2022-12-23T22:04:22.094Z,12.10
2022-12-23T22:09:25.653Z,11.90
2022-12-23T22:14:29.174Z,12.30
2022-12-23T22:19:32.939Z,11.90
2022-12-23T22:29:41.441Z,11.00
2022-12-23T22:34:45.626Z,10.90
2022-12-23T22:39:49.679Z,10.60
2022-12-23T22:44:53.356Z,13.60
2022-12-23T22:49:56.959Z,12.80
2022-12-23T22:55:00.531Z,12.40
2022-12-23T23:00:11.654Z,13.10
2022-12-23T23:05:16.051Z,10.50
2022-12-23T23:10:21.614Z,11.80
2022-12-23T23:15:25.241Z,12.60
2022-12-23T23:20:28.805Z,11.70
2022-12-23T23:25:32.440Z,11.70
2022-12-23T23:30:36.020Z,11.70
2022-12-23T23:35:39.686Z,12.20
2022-12-23T23:40:43.231Z,15.20
2022-12-23T23:45:46.801Z,28.70
2022-12-23T23:50:50.425Z,43.20
2022-12-23T23:55:53.959Z,38.20
